sensor_id;sensor_type;location;lat;lon;timestamp;temperature;humidity
11091;DHT22;5599;52.210;21.046;2023-07-31T17:38:00;24.50;1.00
11091;DHT22;5599;52.210;21.046;2023-07-31T17:40:30;24.50;1.00
11091;DHT22;5599;52.210;21.046;2023-07-31T17:43:01;24.50;1.00
11091;DHT22;5599;52.210;21.046;2023-07-31T17:45:32;24.60;1.00
11091;DHT22;5599;52.210;21.046;2023-07-31T17:48:03;24.50;1.00
11091;DHT22;5599;52.210;21.046;2023-07-31T17:50:33;24.40;1.00
11091;DHT22;5599;52.210;21.046;2023-07-31T17:53:05;24.40;1.00
11091;DHT22;5599;52.210;21.046;2023-07-31T17:55:36;24.40;1.00
11091;DHT22;5599;52.210;21.046;2023-07-31T17:58:06;24.40;1.00
11091;DHT22;5599;52.210;21.046;2023-07-31T18:00:36;24.40;1.00
11091;DHT22;5599;52.210;21.046;2023-07-31T18:03:06;24.40;1.00
11091;DHT22;5599;52.210;21.046;2023-07-31T18:05:40;24.10;1.00
11091;DHT22;5599;52.210;21.046;2023-07-31T18:08:10;24.10;1.00
11091;DHT22;5599;52.210;21.046;2023-07-31T18:10:44;24.00;1.00
11091;DHT22;5599;52.210;21.046;2023-07-31T18:13:14;23.80;1.00
11091;DHT22;5599;52.210;21.046;2023-07-31T18:15:46;23.80;1.00
11091;DHT22;5599;52.210;21.046;2023-07-31T18:18:17;23.60;1.00
11091;DHT22;5599;52.210;21.046;2023-07-31T18:20:47;23.60;1.00
11091;DHT22;5599;52.210;21.046;2023-07-31T18:23:18;23.60;9.30
11091;DHT22;5599;52.210;21.046;2023-07-31T18:25:48;23.60;29.30
11091;DHT22;5599;52.210;21.046;2023-07-31T18:28:18;23.50;38.30
11091;DHT22;5599;52.210;21.046;2023-07-31T18:30:48;23.60;31.10
11091;DHT22;5599;52.210;21.046;2023-07-31T18:33:18;23.50;54.90
11091;DHT22;5599;52.210;21.046;2023-07-31T18:35:49;23.50;89.20
11091;DHT22;5599;52.210;21.046;2023-07-31T18:38:27;23.60;91.00
11091;DHT22;5599;52.210;21.046;2023-07-31T18:41:24;23.50;88.70
11091;DHT22;5599;52.210;21.046;2023-07-31T18:44:01;23.50;96.60
11091;DHT22;5599;52.210;21.046;2023-07-31T18:46:32;23.30;99.90
11091;DHT22;5599;52.210;21.046;2023-07-31T18:49:03;23.30;99.90
11091;DHT22;5599;52.210;21.046;2023-07-31T18:51:36;23.20;99.90
11091;DHT22;5599;52.210;21.046;2023-07-31T18:54:08;23.10;99.90
11091;DHT22;5599;52.210;21.046;2023-07-31T18:56:37;23.10;99.90
11091;DHT22;5599;52.210;21.046;2023-07-31T18:59:09;23.00;99.90
11091;DHT22;5599;52.210;21.046;2023-07-31T19:01:39;22.90;99.90
11091;DHT22;5599;52.210;21.046;2023-07-31T19:04:13;22.80;99.90
11091;DHT22;5599;52.210;21.046;2023-07-31T19:06:43;22.80;99.90
11091;DHT22;5599;52.210;21.046;2023-07-31T19:09:14;22.70;99.90
11091;DHT22;5599;52.210;21.046;2023-07-31T19:11:44;22.70;99.90
11091;DHT22;5599;52.210;21.046;2023-07-31T19:14:13;22.70;99.90
11091;DHT22;5599;52.210;21.046;2023-07-31T19:16:43;22.60;99.90
11091;DHT22;5599;52.210;21.046;2023-07-31T19:19:13;22.50;99.90
11091;DHT22;5599;52.210;21.046;2023-07-31T19:21:43;22.50;99.90
11091;DHT22;5599;52.210;21.046;2023-07-31T19:24:15;22.40;99.90
11091;DHT22;5599;52.210;21.046;2023-07-31T19:26:46;22.40;99.90
11091;DHT22;5599;52.210;21.046;2023-07-31T19:29:16;22.30;99.90
11091;DHT22;5599;52.210;21.046;2023-07-31T19:31:46;22.30;1.00
11091;DHT22;5599;52.210;21.046;2023-07-31T19:34:20;22.30;1.00
11091;DHT22;5599;52.210;21.046;2023-07-31T19:36:49;22.30;1.00
11091;DHT22;5599;52.210;21.046;2023-07-31T19:39:22;22.30;1.00
11091;DHT22;5599;52.210;21.046;2023-07-31T19:41:51;22.30;1.00
11091;DHT22;5599;52.210;21.046;2023-07-31T19:45:42;22.20;1.00
11091;DHT22;5599;52.210;21.046;2023-07-31T19:50:22;22.10;1.00
11091;DHT22;5599;52.210;21.046;2023-07-31T19:53:02;21.90;99.90
11091;DHT22;5599;52.210;21.046;2023-07-31T20:04:36;21.90;99.90
11091;DHT22;5599;52.210;21.046;2023-07-31T20:07:07;22.00;99.90
11091;DHT22;5599;52.210;21.046;2023-07-31T20:09:38;22.00;99.90
11091;DHT22;5599;52.210;21.046;2023-07-31T20:12:08;22.00;99.90
11091;DHT22;5599;52.210;21.046;2023-07-31T20:14:39;22.00;99.90
11091;DHT22;5599;52.210;21.046;2023-07-31T20:17:09;22.00;99.90
11091;DHT22;5599;52.210;21.046;2023-07-31T20:19:43;22.00;99.90
11091;DHT22;5599;52.210;21.046;2023-07-31T20:22:13;22.00;99.90
11091;DHT22;5599;52.210;21.046;2023-07-31T20:24:44;22.00;99.90
11091;DHT22;5599;52.210;21.046;2023-07-31T20:27:21;22.00;99.90
11091;DHT22;5599;52.210;21.046;2023-07-31T20:29:51;22.00;99.90
11091;DHT22;5599;52.210;21.046;2023-07-31T20:32:25;22.00;99.90
11091;DHT22;5599;52.210;21.046;2023-07-31T20:35:16;22.00;99.90
11091;DHT22;5599;52.210;21.046;2023-07-31T20:38:22;22.00;99.90
11091;DHT22;5599;52.210;21.046;2023-07-31T20:40:55;21.90;99.90
11091;DHT22;5599;52.210;21.046;2023-07-31T20:43:26;21.90;99.90
11091;DHT22;5599;52.210;21.046;2023-07-31T20:45:56;21.90;99.90
11091;DHT22;5599;52.210;21.046;2023-07-31T20:48:26;21.90;99.90
11091;DHT22;5599;52.210;21.046;2023-07-31T20:51:00;21.90;1.00
11091;DHT22;5599;52.210;21.046;2023-07-31T20:53:30;21.70;99.90
11091;DHT22;5599;52.210;21.046;2023-07-31T20:56:00;21.60;99.90
11091;DHT22;5599;52.210;21.046;2023-07-31T20:58:30;21.60;99.90
11091;DHT22;5599;52.210;21.046;2023-07-31T21:01:00;21.60;99.90
11091;DHT22;5599;52.210;21.046;2023-07-31T21:03:29;21.60;99.90
11091;DHT22;5599;52.210;21.046;2023-07-31T21:06:01;21.70;70.40
11091;DHT22;5599;52.210;21.046;2023-07-31T21:08:30;21.70;1.00
11091;DHT22;5599;52.210;21.046;2023-07-31T21:10:59;21.70;1.00
11091;DHT22;5599;52.210;21.046;2023-07-31T21:13:28;21.80;1.00
11091;DHT22;5599;52.210;21.046;2023-07-31T21:15:58;21.70;1.00
11091;DHT22;5599;52.210;21.046;2023-07-31T21:18:27;21.70;1.00
11091;DHT22;5599;52.210;21.046;2023-07-31T21:20:57;21.70;1.00
11091;DHT22;5599;52.210;21.046;2023-07-31T21:23:27;21.70;1.00
11091;DHT22;5599;52.210;21.046;2023-07-31T21:25:57;21.70;1.00
11091;DHT22;5599;52.210;21.046;2023-07-31T21:28:33;21.60;1.00
11091;DHT22;5599;52.210;21.046;2023-07-31T21:31:09;21.60;1.00
11091;DHT22;5599;52.210;21.046;2023-07-31T21:33:41;21.70;1.00
11091;DHT22;5599;52.210;21.046;2023-07-31T21:36:15;21.60;1.00
11091;DHT22;5599;52.210;21.046;2023-07-31T21:39:04;21.60;1.00
11091;DHT22;5599;52.210;21.046;2023-07-31T21:41:35;21.70;1.00
11091;DHT22;5599;52.210;21.046;2023-07-31T21:44:12;21.70;1.00
11091;DHT22;5599;52.210;21.046;2023-07-31T21:46:57;21.60;1.00
11091;DHT22;5599;52.210;21.046;2023-07-31T21:49:27;21.60;1.00
11091;DHT22;5599;52.210;21.046;2023-07-31T21:51:56;21.50;1.00
11091;DHT22;5599;52.210;21.046;2023-07-31T21:54:27;21.50;1.00
11091;DHT22;5599;52.210;21.046;2023-07-31T21:56:57;21.60;1.00
11091;DHT22;5599;52.210;21.046;2023-07-31T21:59:26;21.50;1.00
11091;DHT22;5599;52.210;21.046;2023-07-31T22:01:58;21.50;1.00
11091;DHT22;5599;52.210;21.046;2023-07-31T22:04:29;21.40;1.00
11091;DHT22;5599;52.210;21.046;2023-07-31T22:06:59;21.30;1.00
11091;DHT22;5599;52.210;21.046;2023-07-31T22:09:30;21.20;1.00
11091;DHT22;5599;52.210;21.046;2023-07-31T22:12:00;21.20;1.00
11091;DHT22;5599;52.210;21.046;2023-07-31T22:14:29;21.00;99.90
11091;DHT22;5599;52.210;21.046;2023-07-31T22:16:58;21.00;99.90
11091;DHT22;5599;52.210;21.046;2023-07-31T22:19:28;21.00;99.90
11091;DHT22;5599;52.210;21.046;2023-07-31T22:21:57;21.00;99.90
11091;DHT22;5599;52.210;21.046;2023-07-31T22:24:29;21.00;99.90
11091;DHT22;5599;52.210;21.046;2023-07-31T22:27:06;21.00;99.90
11091;DHT22;5599;52.210;21.046;2023-07-31T22:29:35;20.90;1.00
11091;DHT22;5599;52.210;21.046;2023-07-31T22:32:05;20.90;1.00
11091;DHT22;5599;52.210;21.046;2023-07-31T22:34:35;20.80;99.90
11091;DHT22;5599;52.210;21.046;2023-07-31T22:37:06;20.80;99.90
11091;DHT22;5599;52.210;21.046;2023-07-31T22:39:39;20.80;99.90
11091;DHT22;5599;52.210;21.046;2023-07-31T22:42:08;20.80;99.90
11091;DHT22;5599;52.210;21.046;2023-07-31T22:44:37;20.70;99.90
11091;DHT22;5599;52.210;21.046;2023-07-31T22:47:06;20.90;86.20
11091;DHT22;5599;52.210;21.046;2023-07-31T22:49:35;20.90;1.00
11091;DHT22;5599;52.210;21.046;2023-07-31T22:52:05;20.90;1.00
11091;DHT22;5599;52.210;21.046;2023-07-31T22:54:34;20.90;1.00
11091;DHT22;5599;52.210;21.046;2023-07-31T22:57:05;20.90;99.90
11091;DHT22;5599;52.210;21.046;2023-07-31T22:59:34;20.90;99.90
11091;DHT22;5599;52.210;21.046;2023-07-31T23:02:04;20.80;1.00
11091;DHT22;5599;52.210;21.046;2023-07-31T23:04:37;20.80;1.00
11091;DHT22;5599;52.210;21.046;2023-07-31T23:07:09;20.90;1.00
11091;DHT22;5599;52.210;21.046;2023-07-31T23:09:38;20.90;1.00
11091;DHT22;5599;52.210;21.046;2023-07-31T23:12:09;20.80;1.00
11091;DHT22;5599;52.210;21.046;2023-07-31T23:14:38;20.80;1.00
11091;DHT22;5599;52.210;21.046;2023-07-31T23:17:06;20.70;1.00
11091;DHT22;5599;52.210;21.046;2023-07-31T23:19:35;20.70;1.00
11091;DHT22;5599;52.210;21.046;2023-07-31T23:22:05;20.70;1.00
11091;DHT22;5599;52.210;21.046;2023-07-31T23:24:35;20.70;1.00
11091;DHT22;5599;52.210;21.046;2023-07-31T23:27:04;20.70;1.00
11091;DHT22;5599;52.210;21.046;2023-07-31T23:29:37;20.70;1.00
11091;DHT22;5599;52.210;21.046;2023-07-31T23:32:06;20.70;1.00
11091;DHT22;5599;52.210;21.046;2023-07-31T23:34:36;20.70;1.00
11091;DHT22;5599;52.210;21.046;2023-07-31T23:37:05;20.60;20.80
11091;DHT22;5599;52.210;21.046;2023-07-31T23:39:34;20.60;1.00
11091;DHT22;5599;52.210;21.046;2023-07-31T23:42:04;20.60;1.00
11091;DHT22;5599;52.210;21.046;2023-07-31T23:44:35;20.60;1.00
11091;DHT22;5599;52.210;21.046;2023-07-31T23:47:04;20.70;1.00
11091;DHT22;5599;52.210;21.046;2023-07-31T23:49:34;20.70;1.00
11091;DHT22;5599;52.210;21.046;2023-07-31T23:52:03;20.70;1.00
11091;DHT22;5599;52.210;21.046;2023-07-31T23:54:32;20.70;1.00
11091;DHT22;5599;52.210;21.046;2023-07-31T23:57:02;20.60;1.00
11091;DHT22;5599;52.210;21.046;2023-07-31T23:59:32;20.70;1.00
